Time;durP1;ratioP1;P1;durP2;ratioP2;P2;SDS_P1;SDS_P2;PMS_P1;PMS_P2;Temp;Humidity;BMP_temperature;BMP_pressure;BME280_temperature;BME280_humidity;BME280_pressure;Samples;Min_cycle;Max_cycle;Signal;HPM_P1;HPM_P2
2023/05/05 00:01:49;;;;;;;2.77;2.53;;;10.90;99.90;;;;;;5036353;28;20272;-77
2023/05/05 00:04:16;;;;;;;3.57;2.50;;;10.90;99.90;;;;;;5036493;28;20177;-78
2023/05/05 00:06:41;;;;;;;3.03;2.70;;;10.80;99.90;;;;;;5037762;28;20222;-78
2023/05/05 00:09:07;;;;;;;3.00;2.70;;;10.70;99.90;;;;;;5033146;28;20651;-77
2023/05/05 00:11:33;;;;;;;3.07;2.60;;;10.70;99.90;;;;;;5032870;28;20241;-78
2023/05/05 00:13:58;;;;;;;3.10;2.80;;;10.70;99.90;;;;;;5033314;28;20210;-77
2023/05/05 00:16:24;;;;;;;4.13;2.97;;;10.70;99.90;;;;;;5033220;28;20205;-77
2023/05/05 00:18:49;;;;;;;3.70;2.73;;;10.70;99.90;;;;;;5032908;28;20181;-77
2023/05/05 00:21:15;;;;;;;3.47;2.90;;;10.50;1.00;;;;;;5034103;28;20265;-78
2023/05/05 00:23:41;;;;;;;3.17;2.87;;;10.50;1.00;;;;;;5030705;28;20213;-77
2023/05/05 00:26:06;;;;;;;3.00;2.67;;;10.50;99.90;;;;;;5035874;28;20194;-78
2023/05/05 00:28:32;;;;;;;2.70;2.50;;;10.40;99.90;;;;;;5036396;28;20553;-78
2023/05/05 00:30:57;;;;;;;2.97;2.67;;;10.20;1.00;;;;;;5053517;28;20170;-78
2023/05/05 00:33:23;;;;;;;3.10;2.80;;;10.00;1.00;;;;;;5053624;28;20225;-78
2023/05/05 00:35:49;;;;;;;3.73;2.60;;;10.00;1.00;;;;;;5054034;28;20232;-77
2023/05/05 00:38:14;;;;;;;2.87;2.50;;;10.10;1.00;;;;;;5036049;28;20194;-78
2023/05/05 00:40:40;;;;;;;3.00;2.63;;;10.20;1.00;;;;;;5053738;28;20228;-78
2023/05/05 00:43:06;;;;;;;3.47;2.77;;;10.20;1.00;;;;;;5036053;28;20204;-77
2023/05/05 00:45:32;;;;;;;3.33;2.77;;;10.10;1.00;;;;;;5053605;28;20517;-77
2023/05/05 00:47:58;;;;;;;3.57;2.50;;;10.00;1.00;;;;;;5053907;28;20184;-77
2023/05/05 00:50:27;;;;;;;2.80;2.50;;;10.00;1.00;;;;;;5053260;28;20181;-78
2023/05/05 00:52:56;;;;;;;5.37;2.80;;;10.00;1.00;;;;;;5053355;28;20199;-77
2023/05/05 00:55:22;;;;;;;3.03;2.60;;;10.10;1.00;;;;;;5035642;28;20212;-77
2023/05/05 00:57:48;;;;;;;3.57;2.50;;;10.10;1.00;;;;;;5035584;28;20225;-77
2023/05/05 01:00:14;;;;;;;3.10;2.80;;;10.20;1.00;;;;;;5035431;28;20284;-77
2023/05/05 01:02:40;;;;;;;2.93;2.70;;;10.20;99.90;;;;;;5053416;28;20243;-77
2023/05/05 01:05:10;;;;;;;4.23;2.70;;;10.20;99.90;;;;;;5035277;28;20640;-78
2023/05/05 01:07:42;;;;;;;3.77;2.50;;;10.30;1.00;;;;;;5035308;28;20255;-78
2023/05/05 01:10:32;;;;;;;3.33;2.83;;;10.20;1.00;;;;;;5053000;28;20192;-77
2023/05/05 01:13:24;;;;;;;3.10;2.57;;;10.20;1.00;;;;;;5035501;28;20214;-78
2023/05/05 01:16:06;;;;;;;3.90;2.93;;;10.20;1.00;;;;;;5035161;28;20219;-77
2023/05/05 01:18:42;;;;;;;3.30;3.00;;;10.10;1.00;;;;;;5035453;28;20184;-78
2023/05/05 01:21:22;;;;;;;3.23;2.90;;;9.90;1.00;;;;;;5034939;28;20300;-77
2023/05/05 01:23:59;;;;;;;3.07;2.77;;;9.90;99.90;;;;;;5052879;28;20268;-78
2023/05/05 01:26:34;;;;;;;3.50;3.20;;;9.80;99.90;;;;;;5035180;28;20205;-77
2023/05/05 01:29:18;;;;;;;3.57;3.27;;;9.70;1.00;;;;;;5052845;28;20178;-77
2023/05/05 01:31:53;;;;;;;3.87;3.00;;;9.70;1.00;;;;;;5052494;28;20166;-78
2023/05/05 01:34:32;;;;;;;4.23;3.10;;;9.70;1.00;;;;;;5052744;28;20165;-77
2023/05/05 01:37:06;;;;;;;3.90;3.30;;;9.80;99.90;;;;;;5053043;28;20663;-78
2023/05/05 01:39:34;;;;;;;3.80;3.17;;;9.80;1.00;;;;;;5035273;28;20164;-77
2023/05/05 01:42:06;;;;;;;3.97;3.07;;;9.90;1.00;;;;;;5052906;28;20197;-77
2023/05/05 01:44:35;;;;;;;2.90;2.70;;;9.90;99.90;;;;;;5052810;28;20566;-78
2023/05/05 01:47:03;;;;;;;3.43;3.13;;;9.90;99.90;;;;;;5034992;28;20205;-78
2023/05/05 01:49:30;;;;;;;4.20;2.90;;;9.90;45.90;;;;;;5034871;28;20180;-78
2023/05/05 01:51:56;;;;;;;3.40;3.00;;;9.80;99.90;;;;;;5034768;28;20181;-78
2023/05/05 01:54:23;;;;;;;4.33;2.93;;;9.90;99.90;;;;;;5052599;28;20172;-78
2023/05/05 01:56:51;;;;;;;3.30;3.00;;;9.90;60.70;;;;;;5052722;28;20186;-77
2023/05/05 01:59:19;;;;;;;4.57;3.23;;;9.90;5.60;;;;;;5034757;28;20170;-77
2023/05/05 02:01:47;;;;;;;3.43;2.80;;;9.80;99.90;;;;;;5034591;28;20181;-78
2023/05/05 02:04:13;;;;;;;3.13;2.80;;;9.90;99.90;;;;;;5034489;28;20166;-78
2023/05/05 02:06:41;;;;;;;3.70;3.40;;;9.80;99.90;;;;;;5052229;28;20209;-78
2023/05/05 02:09:11;;;;;;;4.03;2.97;;;9.80;1.00;;;;;;5052460;28;20177;-77
2023/05/05 02:11:38;;;;;;;4.00;3.27;;;9.90;99.90;;;;;;5034396;28;20177;-78
2023/05/05 02:14:05;;;;;;;3.00;2.73;;;9.90;1.00;;;;;;5034636;28;20173;-77
2023/05/05 02:16:32;;;;;;;6.77;3.40;;;9.90;1.00;;;;;;5038382;28;20190;-78
2023/05/05 02:19:04;;;;;;;4.50;3.37;;;9.70;24.80;;;;;;5038035;28;20177;-77
2023/05/05 02:21:31;;;;;;;4.50;3.37;;;9.50;99.90;;;;;;5055904;28;20166;-77
2023/05/05 02:23:57;;;;;;;3.43;3.10;;;9.40;1.00;;;;;;5038090;28;20208;-78
2023/05/05 02:26:23;;;;;;;4.50;3.10;;;9.30;99.90;;;;;;5055937;28;20254;-78
2023/05/05 02:29:01;;;;;;;3.40;3.10;;;9.30;99.90;;;;;;5055869;28;20181;-78
2023/05/05 02:31:28;;;;;;;3.43;2.77;;;9.30;99.90;;;;;;5056104;28;20263;-78
2023/05/05 02:33:56;;;;;;;3.53;3.00;;;9.30;99.90;;;;;;5038022;28;20181;-78
2023/05/05 02:36:27;;;;;;;3.50;3.20;;;9.20;1.00;;;;;;5055634;28;20660;-78
2023/05/05 02:38:56;;;;;;;4.47;3.30;;;9.30;1.00;;;;;;5056118;28;20698;-77
2023/05/05 02:41:24;;;;;;;3.37;3.00;;;9.40;99.90;;;;;;5056017;28;20181;-78
2023/05/05 02:43:51;;;;;;;6.23;3.20;;;9.50;99.90;;;;;;5055741;28;20267;-77
2023/05/05 02:46:17;;;;;;;3.57;3.07;;;9.40;99.90;;;;;;5037828;28;20197;-78
2023/05/05 02:48:43;;;;;;;3.30;2.90;;;9.50;1.00;;;;;;5055663;28;20170;-78
2023/05/05 02:51:09;;;;;;;3.40;3.00;;;9.70;99.90;;;;;;5055846;28;20166;-78
2023/05/05 02:53:35;;;;;;;3.20;2.90;;;9.60;1.00;;;;;;5055876;28;20230;-77
2023/05/05 02:56:16;;;;;;;3.47;2.90;;;9.60;99.90;;;;;;5037620;28;20197;-77
2023/05/05 02:58:51;;;;;;;4.37;2.60;;;9.50;1.00;;;;;;5055657;28;20166;-77
2023/05/05 03:01:39;;;;;;;3.47;2.70;;;9.40;99.90;;;;;;5055552;28;20175;-76
2023/05/05 03:04:37;;;;;;;4.33;3.17;;;9.20;99.90;;;;;;5037479;28;20577;-77
2023/05/05 03:07:12;;;;;;;3.97;2.93;;;9.20;1.00;;;;;;5041990;28;20216;-78
2023/05/05 03:09:46;;;;;;;3.73;2.80;;;9.30;1.00;;;;;;5055454;28;20161;-76
2023/05/05 03:12:18;;;;;;;3.27;2.97;;;9.30;1.00;;;;;;5055528;28;20177;-77
2023/05/05 03:14:44;;;;;;;3.97;3.20;;;9.40;10.30;;;;;;5055200;28;20548;-78
2023/05/05 03:17:11;;;;;;;4.70;3.13;;;9.40;99.90;;;;;;5055408;28;20592;-77
2023/05/05 03:19:41;;;;;;;6.17;2.80;;;9.40;1.00;;;;;;5055380;28;20185;-75
2023/05/05 03:22:07;;;;;;;4.23;3.00;;;9.50;99.90;;;;;;5055314;28;20583;-76
2023/05/05 03:24:33;;;;;;;3.20;2.90;;;9.50;1.00;;;;;;5055175;28;20170;-77
2023/05/05 03:26:58;;;;;;;3.60;3.20;;;9.60;1.00;;;;;;5054600;28;20196;-77
2023/05/05 03:29:24;;;;;;;5.17;3.00;;;9.60;99.90;;;;;;5055062;28;20174;-78
2023/05/05 03:31:50;;;;;;;3.80;3.03;;;9.50;99.90;;;;;;5055064;28;20166;-76
2023/05/05 03:34:15;;;;;;;5.57;3.30;;;9.60;99.90;;;;;;5037155;28;20315;-78
2023/05/05 03:36:41;;;;;;;4.40;3.43;;;9.50;99.90;;;;;;5037170;28;20570;-77
2023/05/05 03:39:07;;;;;;;3.23;2.90;;;9.40;99.90;;;;;;5055096;28;20325;-77
2023/05/05 03:41:32;;;;;;;3.73;3.03;;;9.40;99.90;;;;;;5054579;28;20643;-78
2023/05/05 03:43:58;;;;;;;4.03;3.10;;;9.30;1.00;;;;;;5054875;28;20193;-78
2023/05/05 03:46:24;;;;;;;5.47;3.60;;;9.20;16.60;;;;;;5036791;28;20715;-78
2023/05/05 03:48:50;;;;;;;4.27;3.70;;;9.20;1.00;;;;;;5036725;28;20189;-77
2023/05/05 03:51:16;;;;;;;6.87;3.90;;;9.20;1.00;;;;;;5054840;28;20173;-78
2023/05/05 03:53:41;;;;;;;4.57;3.70;;;9.10;1.00;;;;;;5036634;28;20184;-78
2023/05/05 03:56:07;;;;;;;4.83;3.33;;;9.20;1.00;;;;;;5036552;28;20196;-78
2023/05/05 03:58:33;;;;;;;4.43;3.20;;;9.20;99.90;;;;;;5054705;28;20181;-77
2023/05/05 04:00:58;;;;;;;4.00;3.40;;;9.30;99.90;;;;;;5054511;28;20235;-78
2023/05/05 04:03:24;;;;;;;3.83;3.30;;;9.30;1.00;;;;;;5054571;28;20197;-78
2023/05/05 04:05:50;;;;;;;3.10;2.80;;;9.30;99.90;;;;;;5054916;28;20195;-78
2023/05/05 04:08:15;;;;;;;3.87;3.00;;;9.20;99.90;;;;;;5055363;28;20629;-78
2023/05/05 04:10:41;;;;;;;5.40;2.73;;;9.10;99.90;;;;;;5037072;28;20176;-78
2023/05/05 04:13:07;;;;;;;3.90;3.17;;;9.10;1.00;;;;;;5037265;28;20227;-78
2023/05/05 04:15:33;;;;;;;3.30;3.00;;;9.10;99.90;;;;;;5054981;28;20178;-77
2023/05/05 04:17:58;;;;;;;3.80;3.40;;;9.00;1.00;;;;;;5037768;28;20231;-78
2023/05/05 04:20:24;;;;;;;4.03;3.00;;;8.90;1.00;;;;;;5037286;28;20173;-78
2023/05/05 04:22:50;;;;;;;3.00;2.70;;;9.10;99.90;;;;;;5037239;28;20204;-78
2023/05/05 04:25:15;;;;;;;3.77;3.10;;;9.20;99.90;;;;;;5037237;28;20241;-78
2023/05/05 04:27:41;;;;;;;3.73;3.03;;;9.20;1.00;;;;;;5036953;28;20224;-77
2023/05/05 04:30:08;;;;;;;3.70;3.20;;;9.20;1.00;;;;;;5037534;28;20176;-79
2023/05/05 04:32:33;;;;;;;3.67;3.33;;;9.40;1.00;;;;;;5041554;28;20222;-77
2023/05/05 04:35:00;;;;;;;4.83;3.17;;;9.40;99.90;;;;;;5041227;28;20264;-79
2023/05/05 04:37:25;;;;;;;4.33;3.30;;;9.40;1.00;;;;;;5055897;28;20197;-78
2023/05/05 04:39:51;;;;;;;4.47;3.43;;;9.50;1.00;;;;;;5055607;28;20216;-79
2023/05/05 04:42:17;;;;;;;4.83;3.87;;;9.60;99.90;;;;;;5038251;28;20197;-79
2023/05/05 04:44:42;;;;;;;5.60;4.40;;;9.50;1.00;;;;;;5056753;28;20169;-79
2023/05/05 04:47:08;;;;;;;4.07;3.67;;;9.30;1.00;;;;;;5058054;28;20194;-79
2023/05/05 04:49:33;;;;;;;5.00;4.50;;;9.30;1.00;;;;;;5041241;28;20177;-79
2023/05/05 04:51:59;;;;;;;4.93;4.43;;;9.30;99.90;;;;;;5039629;28;20177;-79
2023/05/05 04:54:25;;;;;;;5.30;4.43;;;9.40;99.90;;;;;;5056503;28;20172;-79
2023/05/05 04:56:50;;;;;;;6.57;4.40;;;9.60;1.00;;;;;;5059748;28;20197;-78
2023/05/05 04:59:16;;;;;;;5.53;4.37;;;9.70;1.00;;;;;;5036509;28;20175;-79
2023/05/05 05:01:41;;;;;;;4.90;4.23;;;9.90;99.90;;;;;;5036732;28;20173;-78
2023/05/05 05:04:07;;;;;;;9.43;4.10;;;10.00;1.00;;;;;;5038746;28;20212;-79
2023/05/05 05:06:33;;;;;;;4.10;3.63;;;10.00;1.00;;;;;;5115441;22;20623;-79
2023/05/05 05:08:59;;;;;;;5.50;3.80;;;10.00;99.90;;;;;;5083593;28;20189;-80
2023/05/05 05:11:28;;;;;;;5.43;4.10;;;10.10;1.00;;;;;;5075817;28;20184;-79
2023/05/05 05:13:53;;;;;;;5.13;4.33;;;10.10;1.00;;;;;;5068577;28;20230;-79
2023/05/05 05:16:19;;;;;;;7.10;4.40;;;10.20;99.90;;;;;;5073231;28;20185;-79
2023/05/05 05:18:44;;;;;;;6.77;4.30;;;10.30;30.50;;;;;;5058421;28;20185;-80
2023/05/05 05:21:10;;;;;;;5.17;4.37;;;10.40;99.90;;;;;;5081703;28;20220;-84
2023/05/05 05:23:36;;;;;;;5.27;4.13;;;10.50;99.90;;;;;;5099762;28;20242;-83
2023/05/05 05:26:04;;;;;;;5.27;4.30;;;10.50;99.90;;;;;;5081246;28;20168;-82
2023/05/05 05:28:30;;;;;;;5.87;4.33;;;10.60;99.90;;;;;;5079143;28;20237;-81
2023/05/05 05:30:55;;;;;;;4.40;4.00;;;10.70;99.90;;;;;;5073935;28;20170;-80
2023/05/05 05:33:21;;;;;;;4.30;3.20;;;10.80;99.90;;;;;;5073088;28;20176;-77
2023/05/05 05:35:46;;;;;;;4.10;3.50;;;10.90;99.90;;;;;;5072222;28;20172;-79
2023/05/05 05:38:12;;;;;;;6.03;3.77;;;11.20;99.90;;;;;;5076384;28;20616;-79
2023/05/05 05:40:37;;;;;;;4.73;3.60;;;11.30;99.90;;;;;;5078186;28;20177;-79
2023/05/05 05:43:03;;;;;;;4.03;3.63;;;11.40;49.30;;;;;;5076628;28;20203;-77
2023/05/05 05:45:29;;;;;;;3.90;3.50;;;11.40;99.90;;;;;;5077167;28;20180;-79
2023/05/05 05:47:54;;;;;;;4.87;3.50;;;11.40;99.90;;;;;;5075314;28;20184;-81
2023/05/05 05:50:20;;;;;;;4.57;3.60;;;11.50;1.00;;;;;;5079641;28;20169;-80
2023/05/05 05:52:45;;;;;;;5.17;3.70;;;11.50;1.00;;;;;;5081908;28;20169;-81
2023/05/05 05:55:14;;;;;;;3.70;3.00;;;11.60;1.00;;;;;;5084055;28;20180;-80
2023/05/05 05:57:43;;;;;;;3.87;3.43;;;11.60;1.00;;;;;;5083595;28;20200;-80
2023/05/05 06:00:09;;;;;;;4.63;3.67;;;11.60;1.00;;;;;;5080886;28;20196;-82
2023/05/05 06:02:34;;;;;;;6.40;4.10;;;11.60;99.90;;;;;;5081919;28;20194;-81
2023/05/05 06:05:00;;;;;;;5.77;4.70;;;11.60;39.30;;;;;;5082005;28;20176;-80
2023/05/05 06:07:31;;;;;;;7.67;4.57;;;11.60;76.10;;;;;;5082075;28;20239;-81
2023/05/05 06:09:57;;;;;;;5.77;4.57;;;11.70;99.90;;;;;;5084407;28;20150;-80
2023/05/05 06:12:22;;;;;;;5.10;4.60;;;11.70;1.00;;;;;;5084052;28;20180;-80
2023/05/05 06:14:48;;;;;;;6.57;4.70;;;11.70;1.00;;;;;;5082821;28;20222;-80
2023/05/05 06:17:13;;;;;;;7.43;4.60;;;11.80;1.00;;;;;;5081968;28;20203;-80
2023/05/05 06:19:39;;;;;;;5.60;4.80;;;11.90;1.00;;;;;;5078186;28;20213;-80
2023/05/05 06:22:05;;;;;;;5.53;4.60;;;12.00;1.00;;;;;;5078272;28;20204;-80
2023/05/05 06:24:31;;;;;;;5.67;4.80;;;12.10;1.00;;;;;;5064562;28;20175;-80
2023/05/05 06:26:58;;;;;;;4.87;4.37;;;12.30;1.00;;;;;;5078486;28;20195;-80
2023/05/05 06:29:24;;;;;;;6.13;4.83;;;12.40;1.00;;;;;;5079371;28;20170;-80
2023/05/05 06:31:50;;;;;;;5.30;4.80;;;12.50;1.00;;;;;;5078916;28;20174;-83
2023/05/05 06:34:15;;;;;;;5.40;4.47;;;12.60;1.00;;;;;;5078902;28;20191;-80
2023/05/05 06:36:41;;;;;;;6.73;4.43;;;12.80;1.00;;;;;;5078374;28;20202;-80
2023/05/05 06:39:07;;;;;;;7.73;5.03;;;12.90;99.90;;;;;;5065301;28;20253;-80
2023/05/05 06:41:32;;;;;;;5.40;4.90;;;12.90;1.00;;;;;;5080255;28;20188;-80
2023/05/05 06:43:58;;;;;;;4.67;4.17;;;13.10;99.90;;;;;;5064034;28;20217;-82
2023/05/05 06:46:23;;;;;;;6.43;4.63;;;13.10;99.90;;;;;;5076643;28;20173;-80
2023/05/05 06:48:49;;;;;;;6.70;4.80;;;13.30;17.30;;;;;;5076861;28;20177;-83
2023/05/05 06:51:15;;;;;;;5.00;4.50;;;13.40;99.90;;;;;;5076679;28;20162;-82
2023/05/05 06:53:40;;;;;;;5.20;4.13;;;13.50;99.90;;;;;;5078240;28;20259;-82
2023/05/05 06:56:06;;;;;;;6.93;4.43;;;13.70;99.90;;;;;;5062365;28;20197;-82
2023/05/05 06:58:32;;;;;;;6.23;4.27;;;13.80;99.90;;;;;;5064015;28;20227;-81
2023/05/05 07:00:57;;;;;;;4.47;3.93;;;14.00;1.00;;;;;;5062537;28;20190;-81
2023/05/05 07:03:23;;;;;;;9.83;5.27;;;14.20;1.00;;;;;;5057460;28;20220;-79
2023/05/05 07:05:49;;;;;;;5.27;4.47;;;14.30;1.00;;;;;;5056863;28;20174;-78
2023/05/05 07:08:14;;;;;;;5.67;4.40;;;14.40;1.00;;;;;;5057724;28;20217;-78
2023/05/05 07:10:40;;;;;;;6.23;4.73;;;14.50;1.00;;;;;;5077485;28;20183;-79
2023/05/05 07:13:09;;;;;;;5.67;4.70;;;14.70;43.40;;;;;;5090772;28;20175;-81
2023/05/05 07:15:35;;;;;;;8.50;4.97;;;14.70;12.40;;;;;;5092923;28;20220;-79
2023/05/05 07:18:00;;;;;;;6.30;5.17;;;14.90;99.90;;;;;;5086408;28;20619;-79
2023/05/05 07:20:26;;;;;;;6.97;4.90;;;15.00;99.90;;;;;;5078075;28;20237;-80
2023/05/05 07:22:51;;;;;;;13.83;6.63;;;15.10;99.90;;;;;;5078738;28;20204;-79
2023/05/05 07:25:17;;;;;;;8.87;5.10;;;15.30;99.60;;;;;;5077036;28;20172;-79
2023/05/05 07:27:43;;;;;;;9.37;6.00;;;15.40;99.90;;;;;;5076576;28;20201;-79
2023/05/05 07:30:08;;;;;;;8.50;5.33;;;15.60;99.90;;;;;;5076737;28;20626;-80
2023/05/05 07:32:34;;;;;;;6.53;5.40;;;15.90;99.90;;;;;;5081505;28;20176;-80
2023/05/05 07:35:00;;;;;;;8.60;5.27;;;16.10;99.90;;;;;;5088540;28;20657;-80
2023/05/05 07:37:25;;;;;;;6.80;5.10;;;16.30;1.00;;;;;;5097821;28;20200;-79
2023/05/05 07:39:51;;;;;;;7.03;4.90;;;16.60;99.90;;;;;;5097896;28;20183;-79
2023/05/05 07:42:17;;;;;;;7.83;5.40;;;16.80;1.00;;;;;;5097553;28;20203;-80
2023/05/05 07:44:42;;;;;;;6.87;4.97;;;17.00;1.00;;;;;;5097118;28;20586;-79
2023/05/05 07:47:08;;;;;;;10.17;5.20;;;17.20;99.90;;;;;;5098547;28;20651;-80
2023/05/05 07:49:33;;;;;;;6.30;5.00;;;17.30;99.90;;;;;;5097667;28;20172;-80
2023/05/05 07:51:59;;;;;;;7.13;5.50;;;17.40;1.00;;;;;;5098608;28;20192;-82
2023/05/05 07:54:25;;;;;;;7.73;5.40;;;17.60;1.00;;;;;;5098088;28;20279;-80
2023/05/05 07:56:51;;;;;;;8.60;5.10;;;17.60;1.00;;;;;;5093230;28;20782;-79
2023/05/05 07:59:17;;;;;;;6.40;4.73;;;17.70;1.00;;;;;;5083311;28;20263;-80
2023/05/05 08:01:42;;;;;;;6.97;5.40;;;17.70;1.00;;;;;;5087369;28;20168;-80
2023/05/05 08:04:08;;;;;;;9.27;4.90;;;17.80;1.00;;;;;;5095618;28;20207;-80
2023/05/05 08:06:33;;;;;;;8.57;5.40;;;17.90;1.00;;;;;;5096953;28;20203;-79
2023/05/05 08:09:00;;;;;;;6.90;5.30;;;17.90;15.90;;;;;;5098371;28;20157;-80
2023/05/05 08:11:26;;;;;;;7.17;4.90;;;17.90;1.00;;;;;;5097689;28;20639;-79
2023/05/05 08:13:52;;;;;;;5.63;4.90;;;17.90;6.10;;;;;;5096407;28;20180;-80
2023/05/05 08:16:17;;;;;;;5.47;4.90;;;18.00;99.10;;;;;;5097870;28;20177;-79
2023/05/05 08:18:43;;;;;;;8.23;5.17;;;18.00;99.90;;;;;;5099298;28;20183;-80
2023/05/05 08:21:10;;;;;;;7.23;5.30;;;18.20;99.90;;;;;;5099024;28;20639;-80
2023/05/05 08:23:37;;;;;;;7.87;5.60;;;18.40;1.00;;;;;;5098868;28;20572;-80
2023/05/05 08:26:08;;;;;;;6.23;5.30;;;18.50;36.60;;;;;;5096953;28;20182;-80
2023/05/05 08:28:35;;;;;;;9.97;5.07;;;18.70;1.00;;;;;;5098922;28;20252;-79
2023/05/05 08:31:02;;;;;;;6.77;5.10;;;18.90;1.00;;;;;;5097571;28;20168;-80
2023/05/05 08:33:28;;;;;;;5.67;5.17;;;18.90;1.00;;;;;;5097075;28;20549;-80
2023/05/05 08:35:53;;;;;;;7.67;5.63;;;19.10;1.00;;;;;;5098173;28;20177;-79
2023/05/05 08:38:19;;;;;;;6.13;5.03;;;19.20;1.00;;;;;;5096977;28;20200;-79
2023/05/05 08:40:45;;;;;;;6.83;5.17;;;19.40;1.00;;;;;;5091521;28;20208;-79
2023/05/05 08:43:10;;;;;;;7.23;5.60;;;19.50;1.00;;;;;;5086228;28;20196;-82
2023/05/05 08:45:38;;;;;;;7.80;5.70;;;19.50;1.00;;;;;;5098210;28;20168;-79
2023/05/05 08:48:04;;;;;;;6.23;5.20;;;19.70;1.00;;;;;;5097324;28;20188;-80
2023/05/05 08:50:31;;;;;;;5.80;5.20;;;19.70;1.00;;;;;;5095720;28;20178;-80
2023/05/05 08:53:05;;;;;;;6.67;4.90;;;19.80;1.00;;;;;;5097178;28;20172;-79
2023/05/05 08:55:33;;;;;;;5.57;4.77;;;19.80;1.00;;;;;;5085116;28;20180;-79
2023/05/05 08:58:02;;;;;;;7.70;5.00;;;19.80;1.00;;;;;;5077752;28;20200;-80
2023/05/05 09:00:29;;;;;;;6.07;5.17;;;19.90;1.00;;;;;;5075777;28;20180;-82
2023/05/05 09:02:58;;;;;;;6.53;5.50;;;20.00;1.00;;;;;;5076959;28;20192;-79
2023/05/05 09:05:25;;;;;;;7.53;5.30;;;20.10;1.00;;;;;;5078951;28;20177;-85
2023/05/05 09:07:51;;;;;;;6.63;5.30;;;20.20;1.00;;;;;;5083916;28;20207;-81
2023/05/05 09:10:17;;;;;;;6.90;5.70;;;20.20;99.90;;;;;;5082846;28;20233;-80
2023/05/05 09:12:43;;;;;;;5.93;5.17;;;20.30;1.00;;;;;;5085353;28;20169;-80
2023/05/05 09:15:12;;;;;;;7.77;5.73;;;20.40;1.00;;;;;;5083306;28;20177;-82
2023/05/05 09:17:38;;;;;;;6.75;6.00;;;20.60;99.90;;;;;;5082739;28;20197;-81
2023/05/05 09:20:07;;;;;;;6.25;5.65;;;20.70;99.90;;;;;;5079578;28;20191;-83
2023/05/05 09:22:41;;;;;;;7.22;5.70;;;20.80;1.00;;;;;;5081090;28;20356;-81
2023/05/05 09:25:15;;;;;;;7.68;6.05;;;21.00;1.00;;;;;;5082178;28;20169;-80
2023/05/05 09:27:46;;;;;;;11.45;5.93;;;21.20;99.90;;;;;;5083719;28;20195;-85
2023/05/05 09:30:22;;;;;;;6.40;5.80;;;21.00;99.90;;;;;;5079012;28;20175;-80
2023/05/05 09:32:52;;;;;;;8.60;6.20;;;20.80;1.00;;;;;;5082287;28;20161;-81
2023/05/05 09:35:19;;;;;;;8.77;6.15;;;20.80;1.00;;;;;;5082665;28;20738;-81
2023/05/05 09:37:45;;;;;;;8.27;6.28;;;20.90;1.00;;;;;;5082507;28;20193;-79
2023/05/05 09:40:13;;;;;;;8.48;5.80;;;21.00;99.90;;;;;;5078514;28;20181;-82
2023/05/05 09:42:39;;;;;;;8.60;6.25;;;21.10;1.00;;;;;;5080704;28;20197;-82
2023/05/05 09:45:17;;;;;;;7.22;6.20;;;21.40;99.90;;;;;;5082244;28;20165;-81
2023/05/05 09:47:47;;;;;;;6.85;6.13;;;21.60;99.90;;;;;;5084435;28;20249;-81
2023/05/05 09:50:14;;;;;;;7.10;6.10;;;21.90;99.90;;;;;;5082516;28;20173;-81
2023/05/05 09:52:53;;;;;;;8.48;7.30;;;22.20;99.90;;;;;;5084847;28;20169;-83
2023/05/05 09:55:19;;;;;;;6.47;5.38;;;22.30;99.90;;;;;;5084128;28;20264;-82
2023/05/05 09:57:46;;;;;;;7.03;5.60;;;22.50;99.90;;;;;;5083820;28;20200;-83
2023/05/05 10:00:14;;;;;;;5.90;5.25;;;22.40;99.90;;;;;;5081800;28;20188;-81
2023/05/05 10:02:39;;;;;;;5.95;5.35;;;22.50;99.90;;;;;;5081984;28;20197;-81
2023/05/05 10:05:12;;;;;;;7.07;5.55;;;22.70;99.90;;;;;;5081676;28;20191;-81
2023/05/05 10:07:40;;;;;;;5.70;5.10;;;22.80;99.90;;;;;;5082467;28;20205;-81
2023/05/05 10:10:08;;;;;;;6.15;4.97;;;23.10;99.90;;;;;;5081662;28;20184;-80
2023/05/05 10:12:35;;;;;;;5.20;4.70;;;23.20;99.90;;;;;;5077973;28;20203;-80
2023/05/05 10:15:02;;;;;;;5.72;4.50;;;23.30;99.90;;;;;;5065570;28;20186;-81
2023/05/05 10:17:31;;;;;;;6.90;4.72;;;23.40;99.90;;;;;;5062856;28;20189;-82
2023/05/05 10:20:00;;;;;;;6.28;5.10;;;23.50;99.90;;;;;;5059072;28;20656;-82
2023/05/05 10:22:29;;;;;;;5.88;5.32;;;23.50;99.90;;;;;;5067239;28;20291;-85
2023/05/05 10:25:09;;;;;;;8.38;5.03;;;23.50;99.90;;;;;;5085334;28;20169;-81
2023/05/05 10:27:45;;;;;;;5.57;5.07;;;23.60;99.90;;;;;;5086472;28;20188;-80
2023/05/05 10:30:28;;;;;;;4.80;4.40;;;23.60;99.90;;;;;;5103576;28;20172;-81
2023/05/05 10:33:03;;;;;;;5.57;4.90;;;23.50;99.90;;;;;;5104417;28;20666;-81
2023/05/05 10:35:31;;;;;;;5.28;4.72;;;23.40;99.90;;;;;;5084214;28;20750;-81
2023/05/05 10:37:58;;;;;;;6.10;4.22;;;23.50;99.90;;;;;;5086638;28;20693;-82
2023/05/05 10:40:24;;;;;;;6.28;4.43;;;23.60;99.90;;;;;;5086690;28;20185;-83
2023/05/05 10:42:52;;;;;;;5.22;4.55;;;23.50;99.90;;;;;;5086943;28;20204;-82
2023/05/05 10:45:18;;;;;;;4.43;4.03;;;23.40;99.90;;;;;;5086726;28;20199;-82
2023/05/05 10:47:44;;;;;;;4.53;4.13;;;23.50;99.90;;;;;;5086244;28;20193;-81
2023/05/05 10:50:28;;;;;;;5.47;3.97;;;23.50;99.90;;;;;;5087016;28;20176;-81
2023/05/05 10:53:15;;;;;;;6.03;4.20;;;23.30;99.90;;;;;;5086913;28;20177;-81
2023/05/05 10:56:00;;;;;;;4.55;4.15;;;23.50;99.90;;;;;;5086983;28;20226;-81
2023/05/05 10:58:37;;;;;;;3.55;3.25;;;23.50;99.90;;;;;;5087354;28;20193;-81
2023/05/05 11:01:06;;;;;;;4.97;3.55;;;23.80;99.90;;;;;;5088618;28;20188;-81
2023/05/05 11:03:32;;;;;;;3.72;3.15;;;23.90;99.90;;;;;;5087234;28;20227;-81
2023/05/05 11:06:07;;;;;;;4.20;3.25;;;23.70;99.90;;;;;;5087349;28;20165;-81
2023/05/05 11:08:40;;;;;;;3.53;2.92;;;23.70;99.90;;;;;;5111564;22;20693;-79
2023/05/05 11:11:09;;;;;;;4.63;3.60;;;23.90;99.90;;;;;;5099494;28;20176;-81
2023/05/05 11:13:35;;;;;;;3.42;3.13;;;24.10;99.90;;;;;;5103127;28;20172;-81
2023/05/05 11:16:01;;;;;;;4.22;3.30;;;24.10;99.90;;;;;;5103245;28;20633;-82
2023/05/05 11:18:36;;;;;;;3.45;3.08;;;24.20;99.90;;;;;;5099240;28;20201;-80
2023/05/05 11:21:06;;;;;;;3.28;2.97;;;24.30;99.90;;;;;;5115949;28;20172;-80
2023/05/05 11:23:32;;;;;;;3.25;2.78;;;24.40;99.90;;;;;;5114972;28;20579;-81
2023/05/05 11:25:58;;;;;;;4.47;2.90;;;24.30;99.90;;;;;;5099333;28;20642;-80
2023/05/05 11:28:28;;;;;;;3.08;2.70;;;24.10;99.90;;;;;;5097583;28;20689;-79
2023/05/05 11:30:57;;;;;;;3.30;2.50;;;24.10;99.90;;;;;;5097191;28;20176;-80
2023/05/05 11:33:27;;;;;;;2.50;2.25;;;24.10;99.90;;;;;;5096533;28;20172;-79
2023/05/05 11:35:57;;;;;;;3.88;2.33;;;24.60;99.90;;;;;;5098088;28;20225;-80
2023/05/05 11:38:40;;;;;;;2.92;2.60;;;24.70;38.30;;;;;;5098358;28;20283;-80
2023/05/05 11:41:23;;;;;;;4.43;3.15;;;24.90;54.70;;;;;;5098241;28;20271;-80
2023/05/05 11:43:49;;;;;;;4.40;2.53;;;24.60;24.90;;;;;;5098663;28;20568;-80
2023/05/05 11:46:16;;;;;;;3.38;2.53;;;24.50;80.60;;;;;;5115634;28;20173;-82
2023/05/05 11:48:49;;;;;;;2.78;2.58;;;24.70;2.50;;;;;;5115323;28;20248;-80
2023/05/05 11:51:16;;;;;;;3.33;2.15;;;25.10;1.00;;;;;;5100812;28;20241;-82
2023/05/05 11:53:49;;;;;;;2.90;2.33;;;25.20;1.00;;;;;;5115896;27;20259;-82
2023/05/05 11:56:20;;;;;;;2.28;2.05;;;25.40;1.00;;;;;;5093057;28;20214;-81
2023/05/05 11:59:03;;;;;;;2.88;2.00;;;25.20;1.00;;;;;;5087110;28;20204;-83
2023/05/05 12:01:29;;;;;;;2.50;2.00;;;25.40;1.00;;;;;;5086619;28;20170;-80
2023/05/05 12:03:54;;;;;;;4.65;2.38;;;25.10;1.00;;;;;;5096034;28;20317;-82
2023/05/05 12:06:20;;;;;;;3.20;2.20;;;25.10;1.00;;;;;;5088675;28;20177;-82
2023/05/05 12:08:46;;;;;;;3.25;2.15;;;24.90;1.00;;;;;;5109489;28;20232;-82
2023/05/05 12:11:11;;;;;;;3.08;2.30;;;24.60;1.00;;;;;;5105925;28;20166;-81
2023/05/05 12:13:37;;;;;;;2.70;2.45;;;24.60;1.00;;;;;;5103921;28;20191;-82
2023/05/05 12:16:11;;;;;;;2.83;2.10;;;24.40;1.00;;;;;;5101143;28;20187;-81
2023/05/05 12:18:38;;;;;;;3.30;2.20;;;24.80;1.00;;;;;;5102217;28;20187;-81
2023/05/05 12:21:19;;;;;;;2.50;1.70;;;24.90;1.00;;;;;;5107179;27;20203;-81
2023/05/05 12:23:45;;;;;;;2.70;2.25;;;25.00;1.00;;;;;;5109947;28;20203;-81
2023/05/05 12:26:30;;;;;;;2.72;2.08;;;25.00;1.00;;;;;;5112224;28;20168;-82
2023/05/05 12:28:59;;;;;;;2.63;2.08;;;24.90;1.00;;;;;;5115837;28;20214;-81
2023/05/05 12:31:40;;;;;;;3.05;2.22;;;24.80;1.00;;;;;;5113138;28;20317;-82
2023/05/05 12:34:07;;;;;;;2.47;2.20;;;24.70;1.00;;;;;;5114797;27;20178;-81
2023/05/05 12:36:34;;;;;;;2.67;2.10;;;24.50;1.00;;;;;;5115213;28;20186;-82
2023/05/05 12:39:00;;;;;;;3.92;2.17;;;24.70;1.00;;;;;;5113701;28;20179;-82
2023/05/05 12:41:26;;;;;;;2.42;1.75;;;24.70;1.00;;;;;;5113888;28;20224;-82
2023/05/05 12:43:56;;;;;;;2.63;2.00;;;25.00;1.00;;;;;;5114363;28;20192;-81
2023/05/05 12:46:22;;;;;;;2.75;2.30;;;24.80;1.00;;;;;;5104320;28;20180;-80
2023/05/05 12:49:05;;;;;;;3.33;1.80;;;24.80;1.00;;;;;;5100818;28;20192;-83
2023/05/05 12:51:35;;;;;;;2.30;2.10;;;24.90;1.00;;;;;;5104705;27;20182;-83
2023/05/05 12:54:10;;;;;;;2.83;1.80;;;25.00;1.00;;;;;;5103156;28;20171;-82
2023/05/05 12:56:44;;;;;;;2.10;1.90;;;25.30;1.00;;;;;;5104529;28;20657;-82
2023/05/05 12:59:10;;;;;;;3.08;2.40;;;25.40;1.00;;;;;;5102648;28;20175;-83
2023/05/05 13:01:56;;;;;;;2.05;1.90;;;25.20;1.00;;;;;;5103794;28;20172;-82